sensor_id;sensor_type;location;lat;lon;timestamp;pressure;altitude;pressure_sealevel;temperature;humidity
71917;BME280;59793;46.506;6.674;2022-08-19T00:02:23;96816.06;;;19.92;77.65
71917;BME280;59793;46.506;6.674;2022-08-19T00:04:48;96815.72;;;19.90;77.98
71917;BME280;59793;46.506;6.674;2022-08-19T00:07:20;96818.16;;;19.81;78.83
71917;BME280;59793;46.506;6.674;2022-08-19T00:09:45;96822.63;;;19.88;79.01
71917;BME280;59793;46.506;6.674;2022-08-19T00:12:11;96818.97;;;19.78;79.67
71917;BME280;59793;46.506;6.674;2022-08-19T00:14:37;96817.41;;;19.80;79.32
71917;BME280;59793;46.506;6.674;2022-08-19T00:17:03;96818.97;;;19.78;79.57
71917;BME280;59793;46.506;6.674;2022-08-19T00:19:29;96811.69;;;19.78;79.21
71917;BME280;59793;46.506;6.674;2022-08-19T00:21:54;96808.34;;;19.74;79.36
71917;BME280;59793;46.506;6.674;2022-08-19T00:24:21;96809.91;;;19.72;79.63
71917;BME280;59793;46.506;6.674;2022-08-19T00:26:47;96806.81;;;19.73;79.07
71917;BME280;59793;46.506;6.674;2022-08-19T00:29:15;96814.22;;;19.66;79.82
71917;BME280;59793;46.506;6.674;2022-08-19T00:31:41;96803.34;;;19.49;79.70
71917;BME280;59793;46.506;6.674;2022-08-19T00:34:07;96819.28;;;19.56;79.26
71917;BME280;59793;46.506;6.674;2022-08-19T00:36:33;96814.22;;;19.66;78.70
71917;BME280;59793;46.506;6.674;2022-08-19T00:38:59;96815.97;;;19.76;78.52
71917;BME280;59793;46.506;6.674;2022-08-19T00:41:25;96820.81;;;19.81;78.32
71917;BME280;59793;46.506;6.674;2022-08-19T00:44:06;96826.88;;;19.85;78.86
71917;BME280;59793;46.506;6.674;2022-08-19T00:46:33;96828.69;;;19.92;78.34
71917;BME280;59793;46.506;6.674;2022-08-19T00:49:09;96808.03;;;19.92;77.80
71917;BME280;59793;46.506;6.674;2022-08-19T00:51:34;96823.69;;;19.94;77.46
71917;BME280;59793;46.506;6.674;2022-08-19T00:54:02;96812.25;;;19.93;77.67
71917;BME280;59793;46.506;6.674;2022-08-19T00:56:28;96826.94;;;20.05;77.89
71917;BME280;59793;46.506;6.674;2022-08-19T00:58:56;96842.91;;;20.09;78.04
71917;BME280;59793;46.506;6.674;2022-08-19T01:01:23;96833.41;;;20.08;77.61
71917;BME280;59793;46.506;6.674;2022-08-19T01:03:48;96839.19;;;20.02;76.25
71917;BME280;59793;46.506;6.674;2022-08-19T01:06:14;96844.47;;;20.06;77.03
71917;BME280;59793;46.506;6.674;2022-08-19T01:08:39;96844.28;;;20.17;77.05
71917;BME280;59793;46.506;6.674;2022-08-19T01:11:06;96845.34;;;20.23;76.93
71917;BME280;59793;46.506;6.674;2022-08-19T01:13:33;96849.13;;;20.25;76.52
71917;BME280;59793;46.506;6.674;2022-08-19T01:16:07;96852.00;;;20.15;75.59
71917;BME280;59793;46.506;6.674;2022-08-19T01:18:36;96846.75;;;20.08;76.96
71917;BME280;59793;46.506;6.674;2022-08-19T01:21:09;96847.84;;;20.10;77.92
71917;BME280;59793;46.506;6.674;2022-08-19T01:23:36;96844.47;;;20.06;77.77
71917;BME280;59793;46.506;6.674;2022-08-19T01:26:10;96846.03;;;20.03;76.90
71917;BME280;59793;46.506;6.674;2022-08-19T01:28:37;96849.25;;;19.95;76.81
71917;BME280;59793;46.506;6.674;2022-08-19T01:31:04;96840.75;;;20.00;77.50
71917;BME280;59793;46.506;6.674;2022-08-19T01:33:29;96840.59;;;19.87;77.03
71917;BME280;59793;46.506;6.674;2022-08-19T01:36:22;96845.69;;;19.78;77.00
71917;BME280;59793;46.506;6.674;2022-08-19T01:38:48;96848.94;;;19.89;77.26
71917;BME280;59793;46.506;6.674;2022-08-19T01:41:14;96854.59;;;19.95;77.32
71917;BME280;59793;46.506;6.674;2022-08-19T01:43:40;96852.63;;;19.75;77.55
71917;BME280;59793;46.506;6.674;2022-08-19T01:46:06;96846.63;;;19.68;77.53
71917;BME280;59793;46.506;6.674;2022-08-19T01:48:41;96840.41;;;19.74;76.36
71917;BME280;59793;46.506;6.674;2022-08-19T01:51:08;96838.69;;;19.88;76.39
71917;BME280;59793;46.506;6.674;2022-08-19T01:53:34;96833.75;;;19.59;76.69
71917;BME280;59793;46.506;6.674;2022-08-19T01:56:00;96833.81;;;19.55;77.79
71917;BME280;59793;46.506;6.674;2022-08-19T01:58:32;96832.47;;;19.44;79.28
71917;BME280;59793;46.506;6.674;2022-08-19T02:01:01;96827.56;;;19.39;80.09
71917;BME280;59793;46.506;6.674;2022-08-19T02:03:26;96829.41;;;19.42;79.48
71917;BME280;59793;46.506;6.674;2022-08-19T02:05:58;96834.88;;;19.34;79.66
71917;BME280;59793;46.506;6.674;2022-08-19T02:08:28;96832.16;;;19.38;79.44
71917;BME280;59793;46.506;6.674;2022-08-19T02:10:54;96843.63;;;19.35;79.53
71917;BME280;59793;46.506;6.674;2022-08-19T02:13:20;96843.59;;;19.39;80.22
71917;BME280;59793;46.506;6.674;2022-08-19T02:15:45;96842.31;;;19.47;80.46
71917;BME280;59793;46.506;6.674;2022-08-19T02:18:11;96844.53;;;19.52;80.36
71917;BME280;59793;46.506;6.674;2022-08-19T02:20:38;96852.16;;;19.53;80.22
71917;BME280;59793;46.506;6.674;2022-08-19T02:23:04;96848.34;;;19.54;79.83
71917;BME280;59793;46.506;6.674;2022-08-19T02:25:30;96853.72;;;19.51;79.98
71917;BME280;59793;46.506;6.674;2022-08-19T02:27:55;96853.78;;;19.47;80.21
71917;BME280;59793;46.506;6.674;2022-08-19T02:30:21;96859.03;;;19.54;79.79
71917;BME280;59793;46.506;6.674;2022-08-19T02:32:46;96876.63;;;19.52;80.07
71917;BME280;59793;46.506;6.674;2022-08-19T02:35:13;96877.47;;;19.45;80.63
71917;BME280;59793;46.506;6.674;2022-08-19T02:37:40;96877.88;;;19.44;80.99
71917;BME280;59793;46.506;6.674;2022-08-19T02:40:25;96869.91;;;19.40;80.74
71917;BME280;59793;46.506;6.674;2022-08-19T02:42:51;96888.19;;;19.42;81.03
71917;BME280;59793;46.506;6.674;2022-08-19T02:45:16;96888.50;;;19.47;81.02
71917;BME280;59793;46.506;6.674;2022-08-19T02:47:42;96896.81;;;19.53;80.88
71917;BME280;59793;46.506;6.674;2022-08-19T02:50:08;96898.69;;;19.56;80.38
71917;BME280;59793;46.506;6.674;2022-08-19T02:52:34;96902.44;;;19.62;80.55
71917;BME280;59793;46.506;6.674;2022-08-19T02:55:00;96898.03;;;19.48;80.70
71917;BME280;59793;46.506;6.674;2022-08-19T02:57:26;96905.59;;;19.53;80.74
71917;BME280;59793;46.506;6.674;2022-08-19T02:59:53;96907.66;;;19.42;81.10
71917;BME280;59793;46.506;6.674;2022-08-19T03:02:19;96897.25;;;19.51;80.21
71917;BME280;59793;46.506;6.674;2022-08-19T03:04:44;96895.47;;;19.41;80.80
71917;BME280;59793;46.506;6.674;2022-08-19T03:07:13;96908.22;;;19.30;81.42
71917;BME280;59793;46.506;6.674;2022-08-19T03:09:38;96900.91;;;19.34;81.44
71917;BME280;59793;46.506;6.674;2022-08-19T03:12:04;96901.00;;;19.27;81.32
71917;BME280;59793;46.506;6.674;2022-08-19T03:14:31;96901.75;;;19.27;80.90
71917;BME280;59793;46.506;6.674;2022-08-19T03:16:57;96910.03;;;19.06;82.49
71917;BME280;59793;46.506;6.674;2022-08-19T03:19:23;96909.34;;;18.98;83.13
71917;BME280;59793;46.506;6.674;2022-08-19T03:21:49;96914.94;;;18.77;84.25
71917;BME280;59793;46.506;6.674;2022-08-19T03:24:15;96923.66;;;18.81;84.16
71917;BME280;59793;46.506;6.674;2022-08-19T03:26:43;96917.59;;;18.77;83.96
71917;BME280;59793;46.506;6.674;2022-08-19T03:29:10;96912.59;;;18.79;83.77
71917;BME280;59793;46.506;6.674;2022-08-19T03:31:37;96914.09;;;18.83;83.74
71917;BME280;59793;46.506;6.674;2022-08-19T03:34:04;96912.19;;;18.84;83.70
71917;BME280;59793;46.506;6.674;2022-08-19T03:36:30;96914.81;;;18.88;83.42
71917;BME280;59793;46.506;6.674;2022-08-19T03:38:59;96906.34;;;18.93;83.47
71917;BME280;59793;46.506;6.674;2022-08-19T03:41:36;96920.00;;;19.02;83.39
71917;BME280;59793;46.506;6.674;2022-08-19T03:44:02;96910.81;;;19.03;83.44
71917;BME280;59793;46.506;6.674;2022-08-19T03:46:31;96914.25;;;19.03;83.26
71917;BME280;59793;46.506;6.674;2022-08-19T03:48:59;96913.16;;;18.97;83.52
71917;BME280;59793;46.506;6.674;2022-08-19T03:51:26;96925.38;;;18.98;84.06
71917;BME280;59793;46.506;6.674;2022-08-19T03:53:53;96926.44;;;19.04;83.71
71917;BME280;59793;46.506;6.674;2022-08-19T03:56:19;96929.75;;;19.16;83.19
71917;BME280;59793;46.506;6.674;2022-08-19T03:58:45;96928.09;;;19.25;82.70
71917;BME280;59793;46.506;6.674;2022-08-19T04:01:13;96931.78;;;19.35;82.77
71917;BME280;59793;46.506;6.674;2022-08-19T04:03:39;96935.94;;;19.40;82.57
71917;BME280;59793;46.506;6.674;2022-08-19T04:06:11;96940.97;;;19.34;83.05
71917;BME280;59793;46.506;6.674;2022-08-19T04:08:39;96943.91;;;19.43;82.94
71917;BME280;59793;46.506;6.674;2022-08-19T04:11:14;96940.47;;;19.43;82.79
71917;BME280;59793;46.506;6.674;2022-08-19T04:13:41;96946.94;;;19.45;83.03
71917;BME280;59793;46.506;6.674;2022-08-19T04:16:08;96943.56;;;19.41;83.01
71917;BME280;59793;46.506;6.674;2022-08-19T04:18:36;96940.88;;;19.41;83.14
71917;BME280;59793;46.506;6.674;2022-08-19T04:21:03;96946.41;;;19.27;83.35
71917;BME280;59793;46.506;6.674;2022-08-19T04:23:29;96953.25;;;19.28;83.60
71917;BME280;59793;46.506;6.674;2022-08-19T04:25:55;96947.19;;;19.24;84.09
71917;BME280;59793;46.506;6.674;2022-08-19T04:28:21;96956.72;;;19.25;84.10
71917;BME280;59793;46.506;6.674;2022-08-19T04:30:52;96960.88;;;19.29;83.74
71917;BME280;59793;46.506;6.674;2022-08-19T04:33:21;96963.84;;;19.35;83.58
71917;BME280;59793;46.506;6.674;2022-08-19T04:35:49;96959.97;;;19.40;83.04
71917;BME280;59793;46.506;6.674;2022-08-19T04:38:17;96964.59;;;19.35;83.29
71917;BME280;59793;46.506;6.674;2022-08-19T04:40:46;96961.47;;;19.44;82.91
71917;BME280;59793;46.506;6.674;2022-08-19T04:43:30;96964.94;;;19.41;83.11
71917;BME280;59793;46.506;6.674;2022-08-19T04:45:56;96963.59;;;19.26;83.62
71917;BME280;59793;46.506;6.674;2022-08-19T04:48:23;96975.94;;;19.13;84.22
71917;BME280;59793;46.506;6.674;2022-08-19T04:50:56;96971.31;;;19.17;83.77
71917;BME280;59793;46.506;6.674;2022-08-19T04:53:29;96977.75;;;19.23;83.76
71917;BME280;59793;46.506;6.674;2022-08-19T04:55:56;96975.78;;;19.27;83.77
71917;BME280;59793;46.506;6.674;2022-08-19T04:58:23;96979.25;;;19.24;83.75
71917;BME280;59793;46.506;6.674;2022-08-19T05:00:49;96980.75;;;19.25;84.02
71917;BME280;59793;46.506;6.674;2022-08-19T05:03:15;96972.47;;;19.16;84.38
71917;BME280;59793;46.506;6.674;2022-08-19T05:05:42;96979.91;;;19.31;83.67
71917;BME280;59793;46.506;6.674;2022-08-19T05:08:08;96989.94;;;19.24;83.52
71917;BME280;59793;46.506;6.674;2022-08-19T05:10:36;96994.13;;;19.25;84.18
71917;BME280;59793;46.506;6.674;2022-08-19T05:13:02;97000.66;;;19.20;84.01
71917;BME280;59793;46.506;6.674;2022-08-19T05:15:28;97000.69;;;19.17;84.16
71917;BME280;59793;46.506;6.674;2022-08-19T05:17:56;96994.72;;;19.05;84.31
71917;BME280;59793;46.506;6.674;2022-08-19T05:21:06;97009.50;;;19.14;83.95
71917;BME280;59793;46.506;6.674;2022-08-19T05:23:50;97005.28;;;19.16;83.85
71917;BME280;59793;46.506;6.674;2022-08-19T05:26:15;97001.34;;;19.28;82.89
71917;BME280;59793;46.506;6.674;2022-08-19T05:28:45;97016.53;;;19.34;83.33
71917;BME280;59793;46.506;6.674;2022-08-19T05:31:10;97015.38;;;19.35;82.84
71917;BME280;59793;46.506;6.674;2022-08-19T05:33:37;97021.91;;;19.31;82.89
71917;BME280;59793;46.506;6.674;2022-08-19T05:36:05;97030.69;;;19.31;82.62
71917;BME280;59793;46.506;6.674;2022-08-19T05:38:34;97029.22;;;19.27;82.98
71917;BME280;59793;46.506;6.674;2022-08-19T05:41:07;97018.94;;;19.22;83.33
71917;BME280;59793;46.506;6.674;2022-08-19T05:43:33;97028.19;;;19.14;83.18
71917;BME280;59793;46.506;6.674;2022-08-19T05:45:58;97026.72;;;19.09;83.43
71917;BME280;59793;46.506;6.674;2022-08-19T05:48:23;97029.75;;;19.11;83.29
71917;BME280;59793;46.506;6.674;2022-08-19T05:50:49;97029.00;;;19.10;83.50
71917;BME280;59793;46.506;6.674;2022-08-19T05:53:16;97028.59;;;19.12;83.41
71917;BME280;59793;46.506;6.674;2022-08-19T05:55:41;97030.16;;;19.09;83.19
71917;BME280;59793;46.506;6.674;2022-08-19T05:58:07;97039.31;;;19.08;83.09
71917;BME280;59793;46.506;6.674;2022-08-19T06:00:34;97035.97;;;18.97;83.74
71917;BME280;59793;46.506;6.674;2022-08-19T06:03:00;97042.91;;;18.91;83.27
71917;BME280;59793;46.506;6.674;2022-08-19T06:05:31;97043.63;;;18.95;83.84
71917;BME280;59793;46.506;6.674;2022-08-19T06:07:59;97051.44;;;18.75;84.17
71917;BME280;59793;46.506;6.674;2022-08-19T06:10:28;97042.97;;;18.84;83.86
71917;BME280;59793;46.506;6.674;2022-08-19T06:12:54;97053.47;;;18.57;84.99
71917;BME280;59793;46.506;6.674;2022-08-19T06:15:21;97051.50;;;18.61;85.19
71917;BME280;59793;46.506;6.674;2022-08-19T06:17:53;97055.34;;;18.60;85.68
71917;BME280;59793;46.506;6.674;2022-08-19T06:20:23;97062.94;;;18.61;85.80
71917;BME280;59793;46.506;6.674;2022-08-19T06:22:49;97060.31;;;18.58;85.67
71917;BME280;59793;46.506;6.674;2022-08-19T06:25:17;97070.66;;;18.52;86.42
71917;BME280;59793;46.506;6.674;2022-08-19T06:27:44;97070.69;;;18.45;86.42
71917;BME280;59793;46.506;6.674;2022-08-19T06:30:10;97080.25;;;18.39;86.81
71917;BME280;59793;46.506;6.674;2022-08-19T06:32:36;97085.97;;;18.41;86.87
71917;BME280;59793;46.506;6.674;2022-08-19T06:35:02;97089.03;;;18.36;87.48
71917;BME280;59793;46.506;6.674;2022-08-19T06:37:27;97084.47;;;18.33;87.93
71917;BME280;59793;46.506;6.674;2022-08-19T06:39:53;97087.88;;;18.37;87.60
71917;BME280;59793;46.506;6.674;2022-08-19T06:42:18;97093.63;;;18.35;87.71
71917;BME280;59793;46.506;6.674;2022-08-19T06:44:46;97096.69;;;18.34;87.87
71917;BME280;59793;46.506;6.674;2022-08-19T06:47:16;97098.94;;;18.39;87.15
71917;BME280;59793;46.506;6.674;2022-08-19T06:49:42;97090.56;;;18.33;87.45
71917;BME280;59793;46.506;6.674;2022-08-19T06:52:09;97101.63;;;18.32;87.48
71917;BME280;59793;46.506;6.674;2022-08-19T06:54:37;97105.84;;;18.26;87.58
71917;BME280;59793;46.506;6.674;2022-08-19T06:57:02;97102.03;;;18.34;87.39
71917;BME280;59793;46.506;6.674;2022-08-19T06:59:30;97111.94;;;18.30;87.58
71917;BME280;59793;46.506;6.674;2022-08-19T07:01:57;97109.66;;;18.32;87.33
71917;BME280;59793;46.506;6.674;2022-08-19T07:04:27;97117.66;;;18.32;87.09
71917;BME280;59793;46.506;6.674;2022-08-19T07:06:58;97119.47;;;18.46;87.06
71917;BME280;59793;46.506;6.674;2022-08-19T07:09:24;97125.91;;;18.55;86.50
71917;BME280;59793;46.506;6.674;2022-08-19T07:11:51;97130.06;;;18.60;85.92
71917;BME280;59793;46.506;6.674;2022-08-19T07:14:19;97128.09;;;18.68;85.23
71917;BME280;59793;46.506;6.674;2022-08-19T07:16:49;97134.53;;;18.77;84.95
71917;BME280;59793;46.506;6.674;2022-08-19T07:19:16;97142.81;;;18.90;84.21
71917;BME280;59793;46.506;6.674;2022-08-19T07:21:42;97138.31;;;18.83;83.93
71917;BME280;59793;46.506;6.674;2022-08-19T07:24:08;97139.88;;;18.81;83.47
71917;BME280;59793;46.506;6.674;2022-08-19T07:26:38;97140.59;;;18.85;82.87
71917;BME280;59793;46.506;6.674;2022-08-19T07:29:05;97135.25;;;18.85;83.36
71917;BME280;59793;46.506;6.674;2022-08-19T07:31:30;97141.25;;;18.96;82.32
71917;BME280;59793;46.506;6.674;2022-08-19T07:33:57;97136.28;;;19.02;81.39
71917;BME280;59793;46.506;6.674;2022-08-19T07:36:26;97142.44;;;18.92;83.38
71917;BME280;59793;46.506;6.674;2022-08-19T07:38:57;97132.84;;;19.01;83.34
71917;BME280;59793;46.506;6.674;2022-08-19T07:41:26;97134.34;;;19.02;83.52
71917;BME280;59793;46.506;6.674;2022-08-19T07:43:54;97142.81;;;18.90;82.97
71917;BME280;59793;46.506;6.674;2022-08-19T07:46:20;97149.28;;;18.96;83.37
71917;BME280;59793;46.506;6.674;2022-08-19T07:48:47;97142.25;;;19.17;82.59
71917;BME280;59793;46.506;6.674;2022-08-19T07:51:18;97150.31;;;19.09;81.83
71917;BME280;59793;46.506;6.674;2022-08-19T07:53:45;97141.59;;;19.05;80.78
71917;BME280;59793;46.506;6.674;2022-08-19T07:56:12;97137.31;;;19.11;80.54
71917;BME280;59793;46.506;6.674;2022-08-19T07:58:42;97144.88;;;19.24;80.13
71917;BME280;59793;46.506;6.674;2022-08-19T08:01:15;97150.38;;;19.47;79.66
71917;BME280;59793;46.506;6.674;2022-08-19T08:03:41;97157.50;;;19.65;79.48
71917;BME280;59793;46.506;6.674;2022-08-19T08:06:25;97155.53;;;19.69;79.76
71917;BME280;59793;46.506;6.674;2022-08-19T08:09:10;97164.59;;;19.78;79.08
71917;BME280;59793;46.506;6.674;2022-08-19T08:11:40;97159.00;;;19.62;80.05
71917;BME280;59793;46.506;6.674;2022-08-19T08:14:07;97162.44;;;19.66;80.05
71917;BME280;59793;46.506;6.674;2022-08-19T08:16:38;97171.13;;;19.74;79.56
71917;BME280;59793;46.506;6.674;2022-08-19T08:19:05;97172.66;;;19.75;79.86
71917;BME280;59793;46.506;6.674;2022-08-19T08:21:32;97164.22;;;19.80;80.70
71917;BME280;59793;46.506;6.674;2022-08-19T08:24:00;97163.44;;;19.79;80.60
71917;BME280;59793;46.506;6.674;2022-08-19T08:26:26;97161.28;;;19.67;80.25
71917;BME280;59793;46.506;6.674;2022-08-19T08:28:52;97177.13;;;19.85;80.58
71917;BME280;59793;46.506;6.674;2022-08-19T08:31:17;97166.09;;;19.83;80.13
71917;BME280;59793;46.506;6.674;2022-08-19T08:33:46;97167.06;;;19.96;80.04
71917;BME280;59793;46.506;6.674;2022-08-19T08:36:13;97163.13;;;19.74;79.34
71917;BME280;59793;46.506;6.674;2022-08-19T08:38:40;97174.97;;;19.73;80.18
71917;BME280;59793;46.506;6.674;2022-08-19T08:43:55;97175.75;;;20.08;79.58
71917;BME280;59793;46.506;6.674;2022-08-19T08:47:01;97190.91;;;20.18;79.69
71917;BME280;59793;46.506;6.674;2022-08-19T08:49:30;97179.00;;;20.22;79.02
71917;BME280;59793;46.506;6.674;2022-08-19T08:52:10;97189.66;;;20.26;78.15
71917;BME280;59793;46.506;6.674;2022-08-19T08:54:41;97184.41;;;20.19;77.05
71917;BME280;59793;46.506;6.674;2022-08-19T08:57:13;97195.72;;;20.30;75.71
71917;BME280;59793;46.506;6.674;2022-08-19T08:59:41;97192.06;;;20.47;75.84
71917;BME280;59793;46.506;6.674;2022-08-19T09:02:11;97182.38;;;20.61;75.26
71917;BME280;59793;46.506;6.674;2022-08-19T09:04:38;97196.25;;;20.52;75.63
71917;BME280;59793;46.506;6.674;2022-08-19T09:15:12;97209.28;;;20.50;75.03
71917;BME280;59793;46.506;6.674;2022-08-19T09:17:38;97197.53;;;20.40;76.30
71917;BME280;59793;46.506;6.674;2022-08-19T09:20:18;97217.13;;;20.30;76.78
71917;BME280;59793;46.506;6.674;2022-08-19T09:22:43;97218.47;;;20.45;76.03
71917;BME280;59793;46.506;6.674;2022-08-19T09:25:11;97215.53;;;20.67;75.93
71917;BME280;59793;46.506;6.674;2022-08-19T09:27:38;97221.88;;;20.80;75.26
71917;BME280;59793;46.506;6.674;2022-08-19T09:30:05;97221.28;;;20.69;73.45
71917;BME280;59793;46.506;6.674;2022-08-19T09:32:31;97223.50;;;20.43;73.80
71917;BME280;59793;46.506;6.674;2022-08-19T09:34:57;97219.31;;;20.39;74.44
71917;BME280;59793;46.506;6.674;2022-08-19T09:37:24;97228.28;;;20.25;75.08
71917;BME280;59793;46.506;6.674;2022-08-19T09:39:50;97225.66;;;20.21;76.04
71917;BME280;59793;46.506;6.674;2022-08-19T09:42:17;97235.50;;;20.28;76.10
71917;BME280;59793;46.506;6.674;2022-08-19T09:44:43;97239.88;;;20.45;76.06
71917;BME280;59793;46.506;6.674;2022-08-19T09:47:13;97243.00;;;20.40;76.03
71917;BME280;59793;46.506;6.674;2022-08-19T09:49:40;97240.97;;;20.17;76.96
71917;BME280;59793;46.506;6.674;2022-08-19T09:52:10;97240.13;;;20.24;76.42
71917;BME280;59793;46.506;6.674;2022-08-19T09:54:42;97244.31;;;20.28;77.08
71917;BME280;59793;46.506;6.674;2022-08-19T09:57:07;97247.06;;;20.56;75.65
71917;BME280;59793;46.506;6.674;2022-08-19T09:59:33;97243.16;;;20.64;75.15
71917;BME280;59793;46.506;6.674;2022-08-19T10:01:59;97249.22;;;20.68;74.06
71917;BME280;59793;46.506;6.674;2022-08-19T10:04:25;97250.06;;;20.61;75.06
71917;BME280;59793;46.506;6.674;2022-08-19T10:07:10;97247.94;;;20.76;73.92
71917;BME280;59793;46.506;6.674;2022-08-19T10:09:36;97252.31;;;20.93;72.90
71917;BME280;59793;46.506;6.674;2022-08-19T10:12:04;97256.34;;;21.05;73.10
71917;BME280;59793;46.506;6.674;2022-08-19T10:14:30;97245.88;;;20.87;73.86
71917;BME280;59793;46.506;6.674;2022-08-19T10:16:56;97246.69;;;20.84;73.92
71917;BME280;59793;46.506;6.674;2022-08-19T10:19:23;97246.94;;;20.93;74.66
71917;BME280;59793;46.506;6.674;2022-08-19T10:21:49;97250.81;;;20.92;74.31
71917;BME280;59793;46.506;6.674;2022-08-19T10:24:14;97246.91;;;20.97;73.18
71917;BME280;59793;46.506;6.674;2022-08-19T10:26:41;97250.34;;;21.24;71.11
71917;BME280;59793;46.506;6.674;2022-08-19T10:29:09;97252.81;;;21.12;72.20
71917;BME280;59793;46.506;6.674;2022-08-19T10:31:37;97251.31;;;21.11;71.24
71917;BME280;59793;46.506;6.674;2022-08-19T10:34:02;97250.50;;;21.14;72.43
71917;BME280;59793;46.506;6.674;2022-08-19T10:36:31;97253.31;;;21.30;71.62
71917;BME280;59793;46.506;6.674;2022-08-19T10:38:58;97255.84;;;21.14;73.02
71917;BME280;59793;46.506;6.674;2022-08-19T10:41:34;97257.94;;;21.03;71.16
71917;BME280;59793;46.506;6.674;2022-08-19T10:44:03;97262.56;;;20.98;71.92
71917;BME280;59793;46.506;6.674;2022-08-19T10:46:31;97260.66;;;20.99;73.05
71917;BME280;59793;46.506;6.674;2022-08-19T10:48:58;97263.69;;;21.28;71.72
71917;BME280;59793;46.506;6.674;2022-08-19T10:51:24;97259.59;;;21.47;72.71
71917;BME280;59793;46.506;6.674;2022-08-19T10:54:09;97261.06;;;21.24;72.48
71917;BME280;59793;46.506;6.674;2022-08-19T10:56:36;97263.88;;;21.41;71.76
71917;BME280;59793;46.506;6.674;2022-08-19T10:59:19;97260.69;;;21.50;71.75
71917;BME280;59793;46.506;6.674;2022-08-19T11:01:47;97266.47;;;21.48;71.86
71917;BME280;59793;46.506;6.674;2022-08-19T11:04:13;97266.19;;;21.42;71.64
71917;BME280;59793;46.506;6.674;2022-08-19T11:06:46;97265.34;;;21.18;72.30
71917;BME280;59793;46.506;6.674;2022-08-19T11:09:16;97257.56;;;21.00;72.78
71917;BME280;59793;46.506;6.674;2022-08-19T11:11:43;97268.72;;;21.22;72.29
71917;BME280;59793;46.506;6.674;2022-08-19T11:14:11;97264.19;;;21.19;72.65
71917;BME280;59793;46.506;6.674;2022-08-19T11:16:41;97266.88;;;20.92;73.18
71917;BME280;59793;46.506;6.674;2022-08-19T11:19:09;97265.19;;;20.75;73.51
71917;BME280;59793;46.506;6.674;2022-08-19T11:21:39;97260.44;;;20.56;74.02
71917;BME280;59793;46.506;6.674;2022-08-19T11:24:16;97256.53;;;20.64;74.39
71917;BME280;59793;46.506;6.674;2022-08-19T11:26:43;97268.66;;;20.72;73.65
71917;BME280;59793;46.506;6.674;2022-08-19T11:29:13;97261.94;;;20.87;74.15
71917;BME280;59793;46.506;6.674;2022-08-19T11:31:47;97266.13;;;20.88;72.99
71917;BME280;59793;46.506;6.674;2022-08-19T11:34:27;97268.38;;;20.93;73.02
71917;BME280;59793;46.506;6.674;2022-08-19T11:37:23;97270.31;;;20.93;73.68
71917;BME280;59793;46.506;6.674;2022-08-19T11:39:49;97268.25;;;21.04;72.60
71917;BME280;59793;46.506;6.674;2022-08-19T11:42:19;97282.22;;;21.15;73.69
71917;BME280;59793;46.506;6.674;2022-08-19T11:45:04;97270.31;;;21.47;72.40
71917;BME280;59793;46.506;6.674;2022-08-19T11:47:51;97265.41;;;22.32;68.02
71917;BME280;59793;46.506;6.674;2022-08-19T11:50:25;97272.94;;;22.41;69.02
71917;BME280;59793;46.506;6.674;2022-08-19T11:52:56;97281.25;;;22.03;68.50
71917;BME280;59793;46.506;6.674;2022-08-19T11:55:29;97273.53;;;22.49;68.61
71917;BME280;59793;46.506;6.674;2022-08-19T11:57:54;97278.94;;;22.65;67.45
71917;BME280;59793;46.506;6.674;2022-08-19T12:00:20;97290.34;;;22.53;66.97
71917;BME280;59793;46.506;6.674;2022-08-19T12:02:47;97285.19;;;21.99;67.79
71917;BME280;59793;46.506;6.674;2022-08-19T12:05:12;97281.38;;;21.96;66.93
71917;BME280;59793;46.506;6.674;2022-08-19T12:07:37;97277.72;;;21.63;68.07
71917;BME280;59793;46.506;6.674;2022-08-19T12:10:04;97272.94;;;21.51;68.94
71917;BME280;59793;46.506;6.674;2022-08-19T12:12:29;97285.53;;;21.54;69.03
71917;BME280;59793;46.506;6.674;2022-08-19T12:14:58;97278.66;;;21.76;67.87
71917;BME280;59793;46.506;6.674;2022-08-19T12:17:26;97272.22;;;21.93;67.34
71917;BME280;59793;46.506;6.674;2022-08-19T12:19:52;97272.69;;;21.65;68.74
71917;BME280;59793;46.506;6.674;2022-08-19T12:22:19;97268.69;;;21.53;68.85
71917;BME280;59793;46.506;6.674;2022-08-19T12:24:46;97272.59;;;21.48;68.46
71917;BME280;59793;46.506;6.674;2022-08-19T12:27:12;97271.66;;;21.59;68.30
71917;BME280;59793;46.506;6.674;2022-08-19T12:29:54;97282.84;;;21.54;68.70
71917;BME280;59793;46.506;6.674;2022-08-19T12:32:21;97264.72;;;21.61;68.34
71917;BME280;59793;46.506;6.674;2022-08-19T12:34:49;97270.59;;;21.76;67.26
71917;BME280;59793;46.506;6.674;2022-08-19T12:37:14;97277.38;;;21.61;68.64
71917;BME280;59793;46.506;6.674;2022-08-19T12:39:57;97277.78;;;21.83;67.77
71917;BME280;59793;46.506;6.674;2022-08-19T12:42:23;97278.81;;;21.65;68.50
71917;BME280;59793;46.506;6.674;2022-08-19T12:49:52;97292.22;;;21.89;67.35
71917;BME280;59793;46.506;6.674;2022-08-19T12:52:26;97284.81;;;22.20;66.47
71917;BME280;59793;46.506;6.674;2022-08-19T12:54:53;97290.88;;;22.64;64.97
71917;BME280;59793;46.506;6.674;2022-08-19T12:57:19;97291.34;;;22.99;64.07
71917;BME280;59793;46.506;6.674;2022-08-19T12:59:45;97286.63;;;23.03;63.95
71917;BME280;59793;46.506;6.674;2022-08-19T13:02:11;97278.41;;;23.10;64.03
71917;BME280;59793;46.506;6.674;2022-08-19T13:04:37;97285.72;;;22.89;63.73
71917;BME280;59793;46.506;6.674;2022-08-19T13:07:07;97288.88;;;22.68;64.36
71917;BME280;59793;46.506;6.674;2022-08-19T13:09:34;97291.50;;;22.52;65.35
71917;BME280;59793;46.506;6.674;2022-08-19T13:11:59;97281.50;;;22.32;65.77
71917;BME280;59793;46.506;6.674;2022-08-19T13:14:29;97289.38;;;22.63;65.58
71917;BME280;59793;46.506;6.674;2022-08-19T13:16:57;97285.66;;;22.57;65.27
71917;BME280;59793;46.506;6.674;2022-08-19T13:19:24;97282.63;;;22.55;65.15
71917;BME280;59793;46.506;6.674;2022-08-19T13:21:51;97287.94;;;22.58;65.38
71917;BME280;59793;46.506;6.674;2022-08-19T13:24:19;97292.94;;;22.36;65.64